Time;durP1;ratioP1;P1;durP2;ratioP2;P2;SDS_P1;SDS_P2;PMS_P1;PMS_P2;Temp;Humidity;BMP_temperature;BMP_pressure;BME280_temperature;BME280_humidity;BME280_pressure;Samples;Min_cycle;Max_cycle;Signal;HPM_P1;HPM_P2
2022/06/07 00:02:14;;;;;;;4.22;2.05;;;23.40;64.00;;;;;;5035588;28;20060;-75
2022/06/07 00:04:41;;;;;;;3.42;2.15;;;23.40;64.30;;;;;;5041373;28;20082;-74
2022/06/07 00:07:09;;;;;;;2.25;2.00;;;23.40;64.50;;;;;;5044032;28;20032;-74
2022/06/07 00:09:36;;;;;;;3.33;2.00;;;23.40;63.60;;;;;;5035684;28;20033;-75
2022/06/07 00:12:02;;;;;;;3.42;2.35;;;23.40;63.00;;;;;;5037135;28;20120;-75
2022/06/07 00:14:34;;;;;;;3.63;2.08;;;23.40;64.00;;;;;;5087888;28;20024;-75
2022/06/07 00:17:00;;;;;;;5.57;1.88;;;23.40;64.20;;;;;;5044541;28;20055;-75
2022/06/07 00:19:26;;;;;;;3.20;2.20;;;23.40;64.50;;;;;;5035021;28;20025;-75
2022/06/07 00:21:52;;;;;;;3.67;2.10;;;23.40;64.30;;;;;;5035330;28;20086;-75
2022/06/07 00:24:19;;;;;;;3.80;2.33;;;23.40;64.60;;;;;;5053575;28;20400;-74
2022/06/07 00:26:46;;;;;;;3.03;1.90;;;23.30;64.50;;;;;;5034600;28;20032;-75
2022/06/07 00:29:13;;;;;;;3.08;1.88;;;23.30;64.40;;;;;;5051597;28;20021;-75
2022/06/07 00:31:42;;;;;;;4.10;2.17;;;23.40;64.60;;;;;;5036474;28;20080;-74
2022/06/07 00:34:09;;;;;;;6.75;2.00;;;23.30;64.60;;;;;;5052828;28;20056;-74
2022/06/07 00:36:35;;;;;;;4.10;2.28;;;23.40;64.40;;;;;;5034943;28;20492;-74
2022/06/07 00:39:02;;;;;;;2.00;1.67;;;23.30;64.40;;;;;;5068439;28;20029;-74
2022/06/07 00:41:28;;;;;;;4.10;1.90;;;23.30;64.70;;;;;;5053162;28;20064;-74
2022/06/07 00:44:25;;;;;;;4.35;2.05;;;23.30;64.00;;;;;;5046042;28;20106;-74
2022/06/07 00:47:11;;;;;;;3.65;2.22;;;23.20;63.30;;;;;;5035425;28;20029;-74
2022/06/07 00:49:44;;;;;;;4.30;2.22;;;23.20;63.30;;;;;;5088611;28;20028;-74
2022/06/07 00:52:10;;;;;;;7.23;2.03;;;23.10;63.90;;;;;;5054982;28;20059;-74
2022/06/07 00:54:36;;;;;;;2.70;2.28;;;23.20;64.80;;;;;;5053659;28;20298;-74
2022/06/07 00:57:03;;;;;;;6.38;2.45;;;23.10;64.40;;;;;;5071978;28;20468;-75
2022/06/07 00:59:30;;;;;;;4.15;2.00;;;23.10;65.00;;;;;;5075877;28;20085;-74
2022/06/07 01:01:56;;;;;;;4.78;2.40;;;23.10;65.00;;;;;;5055412;28;20465;-74
2022/06/07 01:04:23;;;;;;;3.38;2.15;;;23.10;64.40;;;;;;5056644;28;20029;-74
2022/06/07 01:12:18;;;;;;;4.20;2.15;;;23.00;65.30;;;;;;5056299;28;20492;-74
2022/06/07 01:14:44;;;;;;;2.58;1.83;;;23.00;65.30;;;;;;5038535;28;20032;-74
2022/06/07 01:17:11;;;;;;;2.80;2.03;;;23.00;65.70;;;;;;5047789;28;20032;-74
2022/06/07 01:19:37;;;;;;;5.18;2.00;;;23.00;65.60;;;;;;5058449;28;20115;-74
2022/06/07 01:22:03;;;;;;;3.13;1.88;;;23.00;65.80;;;;;;5076091;28;20418;-74
2022/06/07 01:24:29;;;;;;;2.88;2.47;;;23.00;65.60;;;;;;5058122;28;20178;-74
2022/06/07 01:26:55;;;;;;;2.88;2.38;;;23.00;65.70;;;;;;5043859;28;20041;-74
2022/06/07 01:29:21;;;;;;;3.42;2.75;;;23.00;66.40;;;;;;5038107;28;20029;-74
2022/06/07 01:31:47;;;;;;;2.97;2.45;;;23.00;65.60;;;;;;5037810;28;20032;-74
2022/06/07 01:34:13;;;;;;;3.47;2.10;;;23.00;65.10;;;;;;5048864;28;20055;-75
2022/06/07 01:36:39;;;;;;;2.97;2.08;;;23.00;65.20;;;;;;5087482;28;20024;-75
2022/06/07 01:41:55;;;;;;;3.90;2.42;;;23.00;65.50;;;;;;5075941;28;20051;-74
2022/06/07 01:44:27;;;;;;;5.25;2.30;;;23.00;65.00;;;;;;5057967;28;20028;-75
2022/06/07 01:46:55;;;;;;;6.15;2.30;;;23.00;64.30;;;;;;5041605;28;20037;-75
2022/06/07 01:49:23;;;;;;;3.90;2.65;;;23.00;64.80;;;;;;5065249;28;20505;-74
2022/06/07 01:51:52;;;;;;;2.40;2.00;;;22.90;65.00;;;;;;5075528;28;20031;-75
2022/06/07 01:54:18;;;;;;;2.72;2.00;;;22.90;65.60;;;;;;5075274;28;20052;-75
2022/06/07 01:56:44;;;;;;;7.43;2.40;;;22.90;65.60;;;;;;5075759;28;20035;-74
2022/06/07 01:59:10;;;;;;;5.18;2.40;;;22.90;65.40;;;;;;5057660;28;20082;-74
2022/06/07 02:01:36;;;;;;;4.85;2.53;;;22.90;65.20;;;;;;5073545;28;20024;-74
2022/06/07 02:04:04;;;;;;;7.40;2.30;;;22.90;65.70;;;;;;5057476;28;20422;-75
2022/06/07 02:06:30;;;;;;;2.42;2.20;;;22.90;65.80;;;;;;5057376;28;20024;-74
2022/06/07 02:08:56;;;;;;;4.45;2.20;;;22.90;65.70;;;;;;5056317;28;20060;-74
2022/06/07 02:11:24;;;;;;;4.40;2.45;;;22.90;66.00;;;;;;5057573;28;20067;-74
2022/06/07 02:13:50;;;;;;;2.88;2.15;;;22.80;65.60;;;;;;5058193;28;20024;-74
2022/06/07 02:16:17;;;;;;;3.13;2.40;;;22.80;66.00;;;;;;5077626;28;20028;-74
2022/06/07 02:18:43;;;;;;;4.63;2.72;;;22.80;66.00;;;;;;5077393;28;20122;-74
2022/06/07 02:21:10;;;;;;;4.10;3.08;;;22.80;65.70;;;;;;5095292;28;20432;-74
2022/06/07 02:23:37;;;;;;;7.40;2.67;;;22.80;65.00;;;;;;5082420;28;20029;-75
2022/06/07 02:26:39;;;;;;;4.22;2.60;;;22.80;65.10;;;;;;5038921;28;20098;-74
2022/06/07 02:29:13;;;;;;;4.43;2.50;;;22.80;64.50;;;;;;5055962;28;20032;-74
2022/06/07 02:31:44;;;;;;;5.05;2.17;;;22.70;65.00;;;;;;5057240;28;20060;-74
2022/06/07 02:34:15;;;;;;;5.47;2.67;;;22.80;65.10;;;;;;5057003;28;20464;-74
2022/06/07 02:36:42;;;;;;;3.25;2.35;;;22.70;65.50;;;;;;5074852;28;20025;-74
2022/06/07 02:39:07;;;;;;;4.38;2.22;;;22.70;65.70;;;;;;5047396;28;20041;-74
2022/06/07 02:41:35;;;;;;;3.63;2.55;;;22.70;66.00;;;;;;5037058;28;20050;-74
2022/06/07 02:44:01;;;;;;;4.88;2.40;;;22.70;66.00;;;;;;5037022;28;20097;-74
2022/06/07 02:46:27;;;;;;;5.63;2.65;;;22.70;66.30;;;;;;5036940;28;20033;-74
2022/06/07 02:48:53;;;;;;;4.82;2.40;;;22.60;66.40;;;;;;5041768;28;20051;-74
2022/06/07 02:51:19;;;;;;;7.70;2.45;;;22.60;66.40;;;;;;5050877;28;20032;-74
2022/06/07 02:53:45;;;;;;;6.28;2.75;;;22.60;66.10;;;;;;5053170;28;20060;-75
2022/06/07 02:56:11;;;;;;;4.35;3.10;;;22.60;66.40;;;;;;5053368;28;20033;-74
2022/06/07 02:58:37;;;;;;;5.65;2.63;;;22.60;66.40;;;;;;5053316;28;20106;-74
2022/06/07 03:01:03;;;;;;;3.55;2.47;;;22.60;66.90;;;;;;5036734;28;20407;-74
2022/06/07 03:03:29;;;;;;;6.50;2.97;;;22.60;67.00;;;;;;5056084;28;20044;-74
2022/06/07 03:05:55;;;;;;;5.13;2.80;;;22.60;66.50;;;;;;5056607;28;20460;-74
2022/06/07 03:08:22;;;;;;;5.72;2.65;;;22.60;66.20;;;;;;5074201;28;20056;-74
2022/06/07 03:10:49;;;;;;;7.35;2.70;;;22.60;65.60;;;;;;5056373;28;20066;-74
2022/06/07 03:13:16;;;;;;;3.67;2.30;;;22.50;65.30;;;;;;5069839;28;20469;-74
2022/06/07 03:15:42;;;;;;;4.88;2.67;;;22.50;65.30;;;;;;5036629;28;20033;-74
2022/06/07 03:18:09;;;;;;;4.28;2.80;;;22.50;65.60;;;;;;5051534;28;20040;-74
2022/06/07 03:20:35;;;;;;;3.60;2.67;;;22.60;65.90;;;;;;5055673;28;20025;-74
2022/06/07 03:23:01;;;;;;;6.85;3.08;;;22.50;64.60;;;;;;5074051;28;20025;-74
2022/06/07 03:25:27;;;;;;;6.78;2.60;;;22.40;64.40;;;;;;5056058;28;20085;-74
2022/06/07 03:27:53;;;;;;;5.40;3.08;;;22.40;65.10;;;;;;5056056;28;20036;-74
2022/06/07 03:30:19;;;;;;;5.53;3.30;;;22.40;65.30;;;;;;5039967;28;20499;-75
2022/06/07 03:32:45;;;;;;;6.65;3.72;;;22.30;64.90;;;;;;5035868;28;20025;-74
2022/06/07 03:35:13;;;;;;;6.43;2.88;;;22.40;65.10;;;;;;5037191;28;20116;-74
2022/06/07 03:37:39;;;;;;;6.68;3.05;;;22.30;65.00;;;;;;5055841;28;20036;-74
2022/06/07 03:40:08;;;;;;;8.00;3.13;;;22.30;64.80;;;;;;5055866;28;20032;-74
2022/06/07 03:42:34;;;;;;;3.50;2.53;;;22.20;64.80;;;;;;5042969;28;20032;-74
2022/06/07 03:45:00;;;;;;;4.85;3.03;;;22.20;65.20;;;;;;5035991;28;20385;-74
2022/06/07 03:47:26;;;;;;;4.47;2.92;;;22.20;64.80;;;;;;5053460;28;20047;-74
2022/06/07 03:49:52;;;;;;;4.97;2.83;;;22.20;65.10;;;;;;5048168;28;20032;-74
2022/06/07 03:52:19;;;;;;;3.92;2.83;;;22.20;64.70;;;;;;5055418;28;20679;-74
2022/06/07 03:54:45;;;;;;;18.27;3.17;;;22.20;64.80;;;;;;5046637;28;20048;-74
2022/06/07 03:57:12;;;;;;;3.47;2.72;;;22.20;65.00;;;;;;5053378;28;20025;-74
2022/06/07 03:59:39;;;;;;;4.47;3.40;;;22.20;64.70;;;;;;5068487;28;20127;-73
2022/06/07 04:02:06;;;;;;;3.85;2.42;;;22.20;64.50;;;;;;5035600;28;20116;-74
2022/06/07 04:04:33;;;;;;;6.25;3.22;;;22.20;64.80;;;;;;5046302;28;20029;-74
2022/06/07 04:09:43;;;;;;;;;;;22.30;64.70;;;;;;5053699;28;20035;-74
2022/06/07 04:12:14;;;;;;;4.22;2.70;;;22.30;65.10;;;;;;5035438;28;19908;-74
2022/06/07 04:14:41;;;;;;;4.25;2.60;;;22.30;63.90;;;;;;5035284;28;20090;-74
2022/06/07 04:17:08;;;;;;;7.70;2.88;;;22.40;64.30;;;;;;5044367;28;20039;-74
2022/06/07 04:19:35;;;;;;;5.50;2.85;;;22.40;64.60;;;;;;5088613;28;20383;-74
2022/06/07 04:22:02;;;;;;;6.95;3.00;;;22.40;64.00;;;;;;5055188;28;20432;-74
2022/06/07 04:24:28;;;;;;;3.55;2.55;;;22.50;64.10;;;;;;5055082;28;20064;-74
2022/06/07 04:26:53;;;;;;;6.95;3.30;;;22.50;64.40;;;;;;5058998;28;20456;-74
2022/06/07 04:29:20;;;;;;;11.50;6.80;;;22.50;65.20;;;;;;5035787;28;20078;-74
2022/06/07 04:31:45;;;;;;;13.27;4.55;;;22.60;64.90;;;;;;5034180;28;20115;-74
2022/06/07 04:34:11;;;;;;;3.65;3.22;;;22.60;64.60;;;;;;5039756;28;20123;-74
2022/06/07 04:36:37;;;;;;;7.07;3.20;;;22.60;64.00;;;;;;5054956;28;20456;-73
2022/06/07 04:39:05;;;;;;;11.55;3.13;;;22.60;64.30;;;;;;5055146;28;20093;-74
2022/06/07 04:41:31;;;;;;;3.80;3.22;;;22.60;64.10;;;;;;5050258;28;20082;-74
2022/06/07 04:43:58;;;;;;;3.67;2.90;;;22.60;63.70;;;;;;5034773;28;20028;-74
2022/06/07 04:46:26;;;;;;;3.72;2.45;;;22.60;63.90;;;;;;5034597;28;20036;-74
2022/06/07 04:48:52;;;;;;;5.60;2.80;;;22.60;63.00;;;;;;5034445;28;20044;-74
2022/06/07 04:51:27;;;;;;;7.57;3.00;;;22.60;63.40;;;;;;5034968;28;20032;-74
2022/06/07 04:53:54;;;;;;;5.97;2.80;;;22.60;63.40;;;;;;5037400;28;20091;-74
2022/06/07 04:56:32;;;;;;;4.10;2.70;;;22.60;63.10;;;;;;5037532;28;20033;-73
2022/06/07 04:58:59;;;;;;;3.03;2.35;;;22.60;64.00;;;;;;5071692;28;20082;-74
2022/06/07 05:01:30;;;;;;;4.50;2.70;;;22.60;64.80;;;;;;5056172;28;20033;-74
2022/06/07 05:03:56;;;;;;;4.63;3.00;;;22.60;65.20;;;;;;5054951;28;20071;-74
2022/06/07 05:06:25;;;;;;;4.55;2.88;;;22.60;66.10;;;;;;5054663;28;20115;-74
2022/06/07 05:08:55;;;;;;;5.10;2.78;;;22.60;65.60;;;;;;5053753;28;20036;-74
2022/06/07 05:11:21;;;;;;;5.95;2.75;;;22.60;66.10;;;;;;5070034;28;20028;-74
2022/06/07 05:13:47;;;;;;;3.47;2.72;;;22.60;66.70;;;;;;5054623;28;20488;-75
2022/06/07 05:16:13;;;;;;;5.10;3.13;;;22.60;67.10;;;;;;5031449;28;20036;-74
2022/06/07 05:18:41;;;;;;;5.75;3.30;;;22.60;66.40;;;;;;5014844;28;20040;-74
2022/06/07 05:21:09;;;;;;;4.15;3.15;;;22.60;65.70;;;;;;5031283;28;20437;-74
2022/06/07 05:23:35;;;;;;;5.95;3.22;;;22.60;65.40;;;;;;5042626;28;20033;-74
2022/06/07 05:26:10;;;;;;;5.18;2.90;;;22.60;65.60;;;;;;5052277;28;20025;-74
2022/06/07 05:28:40;;;;;;;10.75;3.78;;;22.50;65.50;;;;;;5034648;28;20492;-74
2022/06/07 05:31:05;;;;;;;4.47;3.03;;;22.50;65.80;;;;;;5052354;28;20075;-74
2022/06/07 05:33:31;;;;;;;4.15;3.20;;;22.50;66.00;;;;;;5052143;28;20028;-74
2022/06/07 05:35:58;;;;;;;5.00;2.83;;;22.50;66.10;;;;;;5043859;28;20094;-74
2022/06/07 05:38:24;;;;;;;4.43;3.30;;;22.50;66.40;;;;;;5054009;28;20032;-74
2022/06/07 05:40:51;;;;;;;4.30;3.13;;;22.50;66.00;;;;;;5054437;28;20033;-74
2022/06/07 05:43:17;;;;;;;4.07;3.15;;;22.50;66.30;;;;;;5062937;28;20086;-74
2022/06/07 05:45:48;;;;;;;12.65;3.75;;;22.50;66.60;;;;;;5018187;28;20036;-74
2022/06/07 05:48:14;;;;;;;9.02;3.80;;;22.50;66.50;;;;;;5037304;28;20124;-74
2022/06/07 05:50:40;;;;;;;4.85;3.33;;;22.50;66.50;;;;;;5037953;28;20108;-74
2022/06/07 05:53:05;;;;;;;3.65;3.00;;;22.50;66.00;;;;;;5055552;28;20025;-75
2022/06/07 05:55:31;;;;;;;8.63;3.00;;;22.50;66.50;;;;;;5037563;28;20072;-74
2022/06/07 05:57:57;;;;;;;6.78;3.50;;;22.50;66.50;;;;;;5053473;28;20032;-74
2022/06/07 06:00:24;;;;;;;6.72;3.75;;;22.50;66.30;;;;;;5075280;28;20037;-74
2022/06/07 06:02:50;;;;;;;6.80;3.60;;;22.50;66.30;;;;;;5075783;28;20024;-74
2022/06/07 06:05:17;;;;;;;4.82;3.53;;;22.60;66.80;;;;;;5057685;28;20025;-74
2022/06/07 06:10:28;;;;;;;4.22;3.60;;;22.60;66.80;;;;;;5072662;28;20039;-74
2022/06/07 06:12:54;;;;;;;6.00;3.22;;;22.70;66.60;;;;;;5057968;28;20028;-74
2022/06/07 06:15:21;;;;;;;6.40;3.20;;;22.70;65.60;;;;;;5057530;28;20150;-74
2022/06/07 06:17:47;;;;;;;3.78;2.83;;;22.70;65.60;;;;;;5075492;28;20392;-74
2022/06/07 06:20:13;;;;;;;5.72;3.10;;;22.70;65.00;;;;;;5056398;28;20498;-74
2022/06/07 06:22:39;;;;;;;4.20;3.00;;;22.80;66.20;;;;;;5055487;28;20037;-74
2022/06/07 06:25:07;;;;;;;7.35;3.10;;;22.90;66.30;;;;;;5057345;28;20124;-74
2022/06/07 06:27:34;;;;;;;4.13;3.03;;;22.90;66.10;;;;;;5057346;28;20037;-74
2022/06/07 06:30:00;;;;;;;4.43;3.20;;;22.90;66.30;;;;;;5056982;28;20082;-74
2022/06/07 06:32:26;;;;;;;4.05;3.30;;;22.90;65.70;;;;;;5061636;28;20049;-74
2022/06/07 06:34:52;;;;;;;3.40;2.92;;;23.00;65.50;;;;;;5054117;28;20036;-74
2022/06/07 06:37:18;;;;;;;4.75;2.83;;;23.00;65.90;;;;;;5056261;28;20044;-74
2022/06/07 06:39:44;;;;;;;6.32;3.45;;;23.00;66.20;;;;;;5057076;28;20385;-74
2022/06/07 06:42:11;;;;;;;6.25;3.40;;;23.00;65.50;;;;;;5057066;28;20028;-75
2022/06/07 06:44:37;;;;;;;4.68;3.22;;;22.90;64.70;;;;;;5020378;28;20041;-74
2022/06/07 06:47:04;;;;;;;5.43;3.45;;;22.80;64.50;;;;;;5017376;28;20029;-75
2022/06/07 06:49:32;;;;;;;5.15;3.60;;;22.80;64.90;;;;;;5017266;28;20025;-74
2022/06/07 06:52:00;;;;;;;3.50;3.20;;;22.80;65.60;;;;;;5017102;28;20083;-74
2022/06/07 06:54:26;;;;;;;5.43;3.63;;;22.70;66.10;;;;;;5052909;28;20045;-74
2022/06/07 06:56:52;;;;;;;7.00;3.45;;;22.70;66.20;;;;;;5073116;28;20033;-74
2022/06/07 06:59:17;;;;;;;4.75;3.65;;;22.60;67.20;;;;;;5072517;28;20537;-74
2022/06/07 07:01:44;;;;;;;4.65;3.35;;;22.60;67.40;;;;;;5059735;28;20111;-75
2022/06/07 07:04:13;;;;;;;8.35;4.15;;;22.50;66.70;;;;;;5093258;28;20051;-74
2022/06/07 07:06:39;;;;;;;5.38;4.20;;;22.50;66.30;;;;;;5070773;28;20166;-74
2022/06/07 07:09:06;;;;;;;7.40;4.15;;;22.40;67.20;;;;;;5056058;28;20451;-74
2022/06/07 07:11:39;;;;;;;4.40;3.35;;;22.40;67.70;;;;;;5074905;28;20380;-74
2022/06/07 07:14:06;;;;;;;5.93;3.80;;;22.40;68.30;;;;;;5076493;28;20024;-74
2022/06/07 07:16:36;;;;;;;6.55;3.65;;;22.40;68.90;;;;;;5052522;28;20039;-74
2022/06/07 07:19:04;;;;;;;4.97;3.40;;;22.50;69.00;;;;;;5054874;28;20028;-74
2022/06/07 07:21:38;;;;;;;4.82;3.65;;;22.50;68.50;;;;;;5076356;28;20035;-74
2022/06/07 07:24:08;;;;;;;5.13;3.53;;;22.50;68.70;;;;;;5075101;28;20043;-74
2022/06/07 07:26:36;;;;;;;5.50;3.45;;;22.50;69.30;;;;;;5094063;28;20020;-75
2022/06/07 07:29:03;;;;;;;6.18;3.35;;;22.60;69.60;;;;;;5054250;28;20035;-74
2022/06/07 07:31:32;;;;;;;4.82;3.58;;;22.70;70.00;;;;;;5077243;28;20380;-74
2022/06/07 07:33:59;;;;;;;6.10;4.07;;;22.70;69.50;;;;;;5056311;28;20070;-75
2022/06/07 07:36:26;;;;;;;10.65;3.70;;;22.80;69.70;;;;;;5056066;28;20452;-74
2022/06/07 07:38:53;;;;;;;5.18;3.95;;;22.80;69.10;;;;;;5081223;28;20036;-74
2022/06/07 07:41:20;;;;;;;5.00;3.97;;;22.90;68.90;;;;;;5083237;28;20036;-79
2022/06/07 07:43:48;;;;;;;5.00;4.18;;;23.00;68.50;;;;;;5074279;28;20069;-79
2022/06/07 07:46:15;;;;;;;6.85;3.90;;;23.00;68.60;;;;;;5075888;28;20031;-79
2022/06/07 07:48:41;;;;;;;4.85;4.10;;;23.10;68.60;;;;;;5058171;28;20086;-79
2022/06/07 07:51:09;;;;;;;5.65;4.30;;;23.20;67.30;;;;;;5055162;28;20036;-79
2022/06/07 07:53:35;;;;;;;6.13;4.57;;;23.20;67.00;;;;;;5053611;28;20121;-79
2022/06/07 07:56:01;;;;;;;4.28;3.88;;;23.30;67.20;;;;;;5053722;28;20052;-80
2022/06/07 07:58:29;;;;;;;5.88;4.15;;;23.40;67.20;;;;;;5053677;28;20029;-80
2022/06/07 08:01:11;;;;;;;5.50;4.10;;;23.50;67.20;;;;;;5035634;28;20033;-82
2022/06/07 08:03:40;;;;;;;6.25;4.03;;;23.50;66.50;;;;;;5060685;28;20040;-80
2022/06/07 08:06:07;;;;;;;6.82;4.05;;;23.60;66.50;;;;;;5051242;28;20116;-79
2022/06/07 08:08:36;;;;;;;4.43;3.78;;;23.60;66.90;;;;;;5054046;28;20028;-79
2022/06/07 08:11:03;;;;;;;6.05;3.70;;;23.60;66.80;;;;;;5045477;28;20419;-78
2022/06/07 08:13:29;;;;;;;5.18;4.05;;;23.70;68.00;;;;;;5039821;28;20432;-79
2022/06/07 08:15:56;;;;;;;3.40;3.10;;;23.80;67.90;;;;;;5052512;28;20113;-79
2022/06/07 08:18:24;;;;;;;5.90;3.63;;;23.90;67.60;;;;;;5050164;28;20029;-79
2022/06/07 08:20:56;;;;;;;5.45;3.97;;;24.00;67.50;;;;;;5020952;28;20366;-79
2022/06/07 08:23:22;;;;;;;4.43;3.50;;;24.20;67.40;;;;;;5051631;28;20032;-79
2022/06/07 08:25:51;;;;;;;5.78;3.80;;;24.30;67.80;;;;;;5051115;28;20028;-79
2022/06/07 08:28:16;;;;;;;5.30;3.28;;;24.50;67.60;;;;;;5035003;28;20091;-80
2022/06/07 08:30:46;;;;;;;5.88;3.38;;;24.60;68.40;;;;;;5028647;28;20025;-79
2022/06/07 08:38:43;;;;;;;6.78;4.00;;;24.90;65.90;;;;;;5032971;28;20028;-79
2022/06/07 08:41:29;;;;;;;3.72;3.30;;;24.90;65.40;;;;;;5042020;28;20377;-79
2022/06/07 08:44:13;;;;;;;6.43;3.30;;;24.90;64.70;;;;;;5054965;28;20027;-80
2022/06/07 08:46:39;;;;;;;3.20;2.90;;;24.90;64.80;;;;;;5047801;28;20404;-79
2022/06/07 08:49:06;;;;;;;2.97;2.67;;;25.00;65.30;;;;;;5035078;28;20033;-79
2022/06/07 08:51:47;;;;;;;2.85;2.50;;;25.00;63.90;;;;;;5035421;28;20029;-79
2022/06/07 08:54:19;;;;;;;2.10;1.92;;;24.90;62.70;;;;;;5053988;28;20573;-79
2022/06/07 08:56:45;;;;;;;2.25;2.05;;;24.90;62.30;;;;;;5055073;28;20068;-80
2022/06/07 08:59:19;;;;;;;1.85;1.73;;;24.90;62.80;;;;;;5072475;28;20036;-78
2022/06/07 09:02:23;;;;;;;2.22;1.60;;;24.80;63.40;;;;;;5073297;28;20029;-80
2022/06/07 09:04:49;;;;;;;1.65;1.45;;;24.60;62.40;;;;;;5028009;28;20025;-79
2022/06/07 09:07:19;;;;;;;1.83;1.50;;;24.60;61.80;;;;;;5054432;28;20032;-79
2022/06/07 09:12:37;;;;;;;3.78;1.20;;;24.40;63.60;;;;;;5072741;28;20070;-79
2022/06/07 09:15:13;;;;;;;1.67;0.85;;;24.40;64.00;;;;;;5073046;28;20027;-78
2022/06/07 09:17:46;;;;;;;3.72;1.20;;;24.30;64.10;;;;;;5047315;28;20037;-79
2022/06/07 09:20:32;;;;;;;4.32;1.30;;;24.30;63.10;;;;;;5038634;28;20029;-79
2022/06/07 09:23:02;;;;;;;1.85;1.15;;;24.20;63.80;;;;;;5042414;28;20026;-79
2022/06/07 09:25:48;;;;;;;1.40;1.30;;;24.20;64.10;;;;;;5033654;28;20028;-79
2022/06/07 09:28:29;;;;;;;1.52;1.02;;;24.20;62.80;;;;;;5049424;28;20041;-79
2022/06/07 09:31:05;;;;;;;2.15;0.90;;;24.20;65.30;;;;;;5048441;28;20115;-79
2022/06/07 09:33:36;;;;;;;1.63;0.90;;;24.10;64.00;;;;;;5076398;28;20020;-79
2022/06/07 09:36:09;;;;;;;1.67;1.10;;;24.10;63.10;;;;;;5055805;28;20111;-79
2022/06/07 09:38:40;;;;;;;0.80;0.80;;;24.00;62.20;;;;;;5076097;28;20090;-78
2022/06/07 09:41:40;;;;;;;1.10;1.00;;;24.10;63.70;;;;;;5042850;28;20039;-79
2022/06/07 09:44:14;;;;;;;1.67;1.00;;;24.10;62.10;;;;;;5065854;28;20397;-79
2022/06/07 09:46:42;;;;;;;0.68;0.68;;;24.10;62.00;;;;;;5065968;28;20052;-80
2022/06/07 09:49:27;;;;;;;1.65;0.75;;;24.10;61.40;;;;;;5057973;28;20119;-80
2022/06/07 09:51:53;;;;;;;2.35;0.90;;;24.10;62.30;;;;;;5035865;28;20068;-79
2022/06/07 09:54:21;;;;;;;0.93;0.60;;;24.20;61.70;;;;;;5067368;28;20079;-79
2022/06/07 09:56:59;;;;;;;1.63;1.00;;;24.20;64.60;;;;;;5096478;28;20031;-79
2022/06/07 10:00:06;;;;;;;0.85;0.85;;;24.30;63.90;;;;;;5077999;28;20024;-79
2022/06/07 10:02:58;;;;;;;1.08;0.95;;;24.30;64.10;;;;;;5037847;28;20029;-80
2022/06/07 10:05:28;;;;;;;1.10;1.00;;;24.30;61.80;;;;;;5054501;28;20025;-79
2022/06/07 10:08:20;;;;;;;1.13;1.02;;;24.40;62.90;;;;;;5037723;28;20031;-80
2022/06/07 10:11:04;;;;;;;2.90;0.98;;;24.40;61.70;;;;;;5055671;28;20021;-79
2022/06/07 10:13:56;;;;;;;1.08;0.95;;;24.30;63.40;;;;;;5092147;28;20074;-79
2022/06/07 10:16:41;;;;;;;1.75;1.10;;;24.30;63.20;;;;;;5077582;28;20114;-80
2022/06/07 10:19:19;;;;;;;;;;;24.40;63.70;;;;;;5077786;28;20035;-79
2022/06/07 10:22:00;;;;;;;1.75;0.85;;;24.40;64.50;;;;;;5066428;28;19912;-79
2022/06/07 10:24:38;;;;;;;1.00;1.00;;;24.40;63.50;;;;;;5073568;28;20123;-80
2022/06/07 10:27:46;;;;;;;1.23;1.02;;;24.30;61.40;;;;;;5061627;28;20035;-80
2022/06/07 10:30:12;;;;;;;1.20;1.10;;;24.30;62.40;;;;;;5045905;28;20132;-79
2022/06/07 10:33:09;;;;;;;1.10;1.00;;;24.30;62.70;;;;;;5069405;28;20139;-79
2022/06/07 10:36:10;;;;;;;0.93;0.85;;;24.20;62.80;;;;;;5038301;28;20061;-79
2022/06/07 10:39:03;;;;;;;1.05;0.85;;;24.30;63.30;;;;;;5059676;28;20104;-79
2022/06/07 10:42:13;;;;;;;1.10;1.00;;;24.30;63.30;;;;;;5056654;28;20097;-79
2022/06/07 10:44:55;;;;;;;1.17;1.05;;;24.40;62.70;;;;;;5054730;28;20112;-79
2022/06/07 10:47:50;;;;;;;0.80;0.80;;;24.40;62.90;;;;;;5067946;28;20032;-81
2022/06/07 10:50:47;;;;;;;1.52;1.17;;;24.40;63.00;;;;;;5057054;28;20032;-81
2022/06/07 10:53:16;;;;;;;1.48;1.25;;;24.40;62.80;;;;;;5030165;28;20401;-80
2022/06/07 10:55:52;;;;;;;1.85;1.17;;;24.50;63.40;;;;;;5073173;28;20049;-80
2022/06/07 10:58:38;;;;;;;1.00;0.82;;;24.50;63.20;;;;;;5036761;28;20167;-76
2022/06/07 11:01:08;;;;;;;2.30;1.00;;;24.50;63.40;;;;;;5062522;28;20032;-80
2022/06/07 11:03:51;;;;;;;1.10;1.00;;;24.60;62.80;;;;;;5071023;28;20039;-80
2022/06/07 11:09:42;;;;;;;1.40;1.30;;;24.60;64.00;;;;;;5090780;28;20039;-78
2022/06/07 11:12:23;;;;;;;1.98;1.30;;;24.60;63.00;;;;;;5069558;28;20067;-78
2022/06/07 11:15:15;;;;;;;1.73;1.20;;;24.60;62.80;;;;;;5043018;28;20032;-79
2022/06/07 11:18:02;;;;;;;1.33;1.10;;;24.70;62.40;;;;;;5036082;28;20029;-79
2022/06/07 11:20:31;;;;;;;1.38;1.27;;;24.70;63.80;;;;;;5054331;28;20484;-79
2022/06/07 11:23:15;;;;;;;3.20;1.20;;;24.90;64.60;;;;;;5053971;28;20025;-79
2022/06/07 11:26:01;;;;;;;1.05;1.00;;;25.00;62.90;;;;;;5051450;28;20095;-79
2022/06/07 11:28:34;;;;;;;1.05;0.95;;;25.10;62.10;;;;;;5056154;28;20062;-79
2022/06/07 11:31:25;;;;;;;1.58;1.23;;;25.30;62.80;;;;;;5056453;28;20031;-79
2022/06/07 11:33:51;;;;;;;1.00;0.90;;;25.40;63.60;;;;;;5046323;28;20396;-79
2022/06/07 11:36:20;;;;;;;1.73;1.30;;;25.60;64.20;;;;;;5055606;28;20031;-79
2022/06/07 11:38:55;;;;;;;0.95;0.90;;;25.70;62.70;;;;;;5055680;28;20036;-79
2022/06/07 11:41:39;;;;;;;0.90;0.80;;;25.80;61.30;;;;;;5055430;28;20039;-79
2022/06/07 11:44:26;;;;;;;0.88;0.82;;;25.90;61.60;;;;;;5073972;28;20074;-79
2022/06/07 11:46:52;;;;;;;0.80;0.80;;;26.00;61.70;;;;;;5074223;28;20048;-79
2022/06/07 11:49:18;;;;;;;2.35;0.93;;;26.10;60.50;;;;;;5055783;28;20501;-79
2022/06/07 11:51:54;;;;;;;2.05;1.15;;;26.10;59.60;;;;;;5055791;28;20430;-79
2022/06/07 11:54:29;;;;;;;1.05;0.90;;;26.10;59.20;;;;;;5055257;28;20395;-79
2022/06/07 11:57:02;;;;;;;0.80;0.80;;;26.20;60.10;;;;;;5055738;28;20039;-79
2022/06/07 11:59:41;;;;;;;0.60;0.60;;;26.10;60.20;;;;;;5073408;28;20032;-79
2022/06/07 12:02:07;;;;;;;2.63;1.20;;;26.10;61.20;;;;;;5055522;28;20032;-79
2022/06/07 12:04:57;;;;;;;1.30;1.00;;;26.20;61.30;;;;;;5073381;28;20371;-79
2022/06/07 12:07:35;;;;;;;1.15;0.73;;;26.20;61.10;;;;;;5055237;28;20486;-79
2022/06/07 12:10:16;;;;;;;1.25;0.90;;;26.20;59.10;;;;;;5055399;28;20067;-79
2022/06/07 12:12:51;;;;;;;2.05;0.93;;;26.20;59.00;;;;;;5055671;28;20119;-78
2022/06/07 12:15:22;;;;;;;1.52;0.88;;;26.10;58.40;;;;;;5055587;28;20024;-79
2022/06/07 12:18:03;;;;;;;1.48;0.90;;;26.00;58.70;;;;;;5055315;28;20025;-78
2022/06/07 12:20:36;;;;;;;1.55;0.80;;;26.00;60.00;;;;;;5055380;28;20032;-79
2022/06/07 12:23:18;;;;;;;1.13;0.80;;;26.00;60.80;;;;;;5055237;28;20040;-79
2022/06/07 12:25:58;;;;;;;0.80;0.80;;;25.90;59.40;;;;;;5055219;28;20024;-78
2022/06/07 12:28:30;;;;;;;2.67;1.33;;;25.80;59.40;;;;;;5073099;28;20028;-78
2022/06/07 12:30:57;;;;;;;0.70;0.70;;;25.80;59.90;;;;;;5055240;28;20112;-78
2022/06/07 12:33:33;;;;;;;0.90;0.90;;;25.80;59.60;;;;;;5055035;28;20025;-78
2022/06/07 12:36:17;;;;;;;1.02;1.00;;;25.80;59.30;;;;;;5055139;28;20028;-78
2022/06/07 12:38:46;;;;;;;0.98;0.88;;;25.70;58.60;;;;;;5055272;28;20047;-78
2022/06/07 12:41:24;;;;;;;1.13;0.95;;;25.70;58.70;;;;;;5055360;28;20028;-78
2022/06/07 12:43:59;;;;;;;1.10;0.90;;;25.70;58.70;;;;;;5055265;28;20170;-78
2022/06/07 12:46:28;;;;;;;1.55;1.10;;;25.70;58.70;;;;;;5072848;28;20531;-78
2022/06/07 12:48:56;;;;;;;1.58;1.00;;;25.70;59.30;;;;;;5072889;28;20039;-79
2022/06/07 12:51:48;;;;;;;1.00;0.90;;;25.70;59.40;;;;;;5054872;28;20025;-78
2022/06/07 12:54:20;;;;;;;0.93;0.88;;;25.80;59.10;;;;;;5056268;28;20052;-78
2022/06/07 12:56:47;;;;;;;1.30;0.90;;;25.90;59.70;;;;;;5059254;28;20028;-78
2022/06/07 12:59:35;;;;;;;3.90;0.85;;;26.10;60.70;;;;;;5058949;28;20419;-78
2022/06/07 13:02:02;;;;;;;0.73;0.70;;;26.20;59.90;;;;;;5058639;28;20028;-78
2022/06/07 13:04:45;;;;;;;0.73;0.73;;;26.40;60.00;;;;;;5058877;28;20112;-78
2022/06/07 13:07:24;;;;;;;1.08;0.68;;;26.50;59.00;;;;;;5058891;28;20427;-78
2022/06/07 13:09:54;;;;;;;0.82;0.70;;;26.60;58.30;;;;;;5076589;28;20552;-78
2022/06/07 13:12:32;;;;;;;3.55;0.63;;;26.60;58.10;;;;;;5076768;28;20031;-79
2022/06/07 13:15:02;;;;;;;2.50;0.93;;;26.70;58.90;;;;;;5076391;28;20033;-78
2022/06/07 13:17:36;;;;;;;1.15;0.70;;;26.70;57.80;;;;;;5058543;28;20179;-79
2022/06/07 13:20:04;;;;;;;0.60;0.50;;;26.80;58.20;;;;;;5058748;28;20032;-79
2022/06/07 13:22:36;;;;;;;0.98;0.60;;;26.80;57.40;;;;;;5058483;28;20107;-79
2022/06/07 13:25:23;;;;;;;1.23;0.70;;;27.00;59.20;;;;;;5076314;28;20101;-78
2022/06/07 13:27:58;;;;;;;0.70;0.70;;;27.10;58.90;;;;;;5058524;28;20388;-78
2022/06/07 13:30:26;;;;;;;1.63;0.98;;;27.30;59.40;;;;;;5058587;28;20051;-77
2022/06/07 13:33:29;;;;;;;0.68;0.60;;;27.50;58.40;;;;;;5076219;28;20028;-78
2022/06/07 13:36:05;;;;;;;0.80;0.80;;;27.80;59.10;;;;;;4977953;28;20038;-78